createdAt,value
2017-08-18T00:00:25.546Z,0
2017-08-18T00:01:27.222Z,0
2017-08-18T00:02:28.937Z,0
2017-08-18T00:03:30.605Z,0
2017-08-18T00:04:33.362Z,0
2017-08-18T00:05:35.047Z,0
2017-08-18T00:06:36.793Z,0
2017-08-18T00:07:38.465Z,0
2017-08-18T00:08:40.243Z,0
2017-08-18T00:09:41.931Z,0
2017-08-18T00:10:43.648Z,0
2017-08-18T00:11:45.305Z,0
2017-08-18T00:12:47.097Z,0
2017-08-18T00:13:48.770Z,0
2017-08-18T00:14:50.520Z,0
2017-08-18T00:15:52.180Z,0
2017-08-18T00:16:53.899Z,0
2017-08-18T00:17:55.590Z,0
2017-08-18T00:18:57.306Z,0
2017-08-18T00:19:58.958Z,0
2017-08-18T00:21:00.698Z,0
2017-08-18T00:22:02.363Z,0
2017-08-18T00:23:04.082Z,0
2017-08-18T00:24:05.727Z,0
2017-08-18T00:25:08.541Z,0
2017-08-18T00:26:10.193Z,0
2017-08-18T00:27:11.903Z,0
2017-08-18T00:28:13.577Z,0
2017-08-18T00:29:15.280Z,0
2017-08-18T00:30:16.971Z,0
2017-08-18T00:31:18.688Z,0
2017-08-18T00:32:20.333Z,0
2017-08-18T00:33:22.070Z,0
2017-08-18T00:34:23.791Z,0
2017-08-18T00:35:25.558Z,0
2017-08-18T00:36:27.215Z,0
2017-08-18T00:37:28.952Z,0
2017-08-18T00:38:30.599Z,0
2017-08-18T00:39:32.358Z,0
2017-08-18T00:40:34.017Z,0
2017-08-18T00:41:35.752Z,0
2017-08-18T00:42:37.372Z,0
2017-08-18T00:43:39.150Z,0
2017-08-18T00:44:40.805Z,0
2017-08-18T00:45:42.545Z,0
2017-08-18T00:46:44.246Z,0
2017-08-18T00:47:46.022Z,0
2017-08-18T00:48:47.678Z,0
2017-08-18T00:49:49.415Z,0
2017-08-18T00:50:51.067Z,0
2017-08-18T00:51:52.807Z,0
2017-08-18T00:52:54.463Z,0
2017-08-18T00:53:56.209Z,0
2017-08-18T00:54:57.910Z,0
2017-08-18T00:55:59.702Z,0
2017-08-18T00:57:01.362Z,0
2017-08-18T00:58:03.092Z,0
2017-08-18T00:59:04.764Z,0
2017-08-18T01:00:06.508Z,0
2017-08-18T01:01:08.146Z,0
2017-08-18T01:02:09.896Z,0
2017-08-18T01:03:11.556Z,0
2017-08-18T01:04:13.270Z,0
2017-08-18T01:05:14.930Z,0
2017-08-18T01:06:16.658Z,0
2017-08-18T01:07:18.323Z,0
2017-08-18T01:08:20.083Z,0
2017-08-18T01:09:21.776Z,0
2017-08-18T01:10:24.464Z,0
2017-08-18T01:11:26.120Z,0
2017-08-18T01:12:27.856Z,0
2017-08-18T01:13:30.240Z,0
2017-08-18T01:14:31.979Z,0
2017-08-18T01:15:33.635Z,0
2017-08-18T01:16:35.365Z,0
2017-08-18T01:17:37.056Z,0
2017-08-18T01:18:38.770Z,0
2017-08-18T01:19:40.421Z,0
2017-08-18T01:20:42.173Z,0
2017-08-18T01:21:43.826Z,0
2017-08-18T01:22:45.542Z,0
2017-08-18T01:23:47.191Z,0
2017-08-18T01:24:48.937Z,0
2017-08-18T01:25:50.642Z,0
2017-08-18T01:26:52.467Z,0
2017-08-18T01:27:54.136Z,0
2017-08-18T01:28:55.925Z,0
2017-08-18T01:29:57.609Z,0
2017-08-18T01:30:59.330Z,0
2017-08-18T01:32:01.018Z,0
2017-08-18T01:33:03.247Z,0
2017-08-18T01:34:04.905Z,0
2017-08-18T01:35:06.736Z,0
2017-08-18T01:36:08.396Z,0
2017-08-18T01:37:10.152Z,0
2017-08-18T01:38:12.777Z,0
2017-08-18T01:39:14.530Z,0
2017-08-18T01:40:16.184Z,0
2017-08-18T01:41:17.938Z,0
2017-08-18T01:42:19.585Z,0
2017-08-18T01:43:21.321Z,0
2017-08-18T01:44:23.013Z,0
2017-08-18T01:45:24.824Z,0
2017-08-18T01:46:26.483Z,0
2017-08-18T01:47:28.205Z,0
2017-08-18T01:48:29.857Z,0
2017-08-18T01:49:31.596Z,0
2017-08-18T01:50:33.295Z,0
2017-08-18T01:51:35.112Z,0
2017-08-18T01:52:36.744Z,0
2017-08-18T01:53:38.484Z,0
2017-08-18T01:54:40.186Z,0
2017-08-18T01:55:41.976Z,0
2017-08-18T01:56:43.631Z,0
2017-08-18T01:57:45.405Z,0
2017-08-18T01:58:47.060Z,0
2017-08-18T01:59:48.871Z,0
2017-08-18T02:00:50.513Z,0
2017-08-18T02:01:52.261Z,0
2017-08-18T02:02:53.948Z,0
2017-08-18T02:03:55.791Z,0
2017-08-18T02:04:57.453Z,0
2017-08-18T02:05:59.270Z,0
2017-08-18T02:07:00.890Z,0
2017-08-18T02:08:03.665Z,0
2017-08-18T02:09:05.315Z,0
2017-08-18T02:10:07.060Z,0
2017-08-18T02:11:08.739Z,0
2017-08-18T02:12:10.559Z,0
2017-08-18T02:13:12.228Z,0
2017-08-18T02:14:14.970Z,0
2017-08-18T02:15:16.630Z,0
2017-08-18T02:16:18.382Z,0
2017-08-18T02:17:20.044Z,0
2017-08-18T02:18:21.857Z,0
2017-08-18T02:19:23.507Z,0
2017-08-18T02:20:25.262Z,0
2017-08-18T02:21:26.907Z,0
2017-08-18T02:22:28.661Z,0
2017-08-18T02:23:30.314Z,0
2017-08-18T02:24:32.132Z,0
2017-08-18T02:25:33.792Z,0
2017-08-18T02:26:35.526Z,0
2017-08-18T02:27:37.181Z,0
2017-08-18T02:28:38.943Z,0
2017-08-18T02:29:40.616Z,0
2017-08-18T02:30:42.445Z,0
2017-08-18T02:31:44.128Z,0
2017-08-18T02:32:45.975Z,0
2017-08-18T02:33:47.625Z,0
2017-08-18T02:34:49.415Z,0
2017-08-18T02:35:51.060Z,0
2017-08-18T02:36:52.914Z,0
2017-08-18T02:37:54.555Z,0
2017-08-18T02:38:56.328Z,0
2017-08-18T02:39:57.992Z,0
2017-08-18T02:40:59.828Z,0
2017-08-18T02:42:01.501Z,0
2017-08-18T02:43:04.315Z,0
2017-08-18T02:44:05.932Z,0
2017-08-18T02:45:07.711Z,0
2017-08-18T02:46:09.374Z,0
2017-08-18T02:47:11.207Z,0
2017-08-18T02:48:12.874Z,0
2017-08-18T02:49:14.702Z,0
2017-08-18T02:50:16.367Z,0
2017-08-18T02:51:18.194Z,0
2017-08-18T02:52:19.881Z,0
2017-08-18T02:53:21.692Z,0
2017-08-18T02:54:23.351Z,0
2017-08-18T02:55:25.185Z,0
2017-08-18T02:56:26.840Z,0
2017-08-18T02:57:28.691Z,0
2017-08-18T02:58:30.332Z,0
2017-08-18T02:59:32.170Z,0
2017-08-18T03:00:33.836Z,0
2017-08-18T03:01:35.771Z,0
2017-08-18T03:02:37.457Z,0
2017-08-18T03:03:39.277Z,0
2017-08-18T03:04:41.000Z,0
2017-08-18T03:05:42.796Z,0
2017-08-18T03:06:44.450Z,0
2017-08-18T03:07:46.255Z,0
2017-08-18T03:08:47.928Z,0
2017-08-18T03:09:49.789Z,0
2017-08-18T03:10:51.460Z,0
2017-08-18T03:11:53.264Z,0
2017-08-18T03:12:54.932Z,0
2017-08-18T03:13:56.745Z,0
2017-08-18T03:14:58.398Z,0
2017-08-18T03:16:00.291Z,0
2017-08-18T03:17:01.964Z,0
2017-08-18T03:18:03.739Z,0
2017-08-18T03:19:05.392Z,0
2017-08-18T03:20:07.223Z,0
2017-08-18T03:21:08.871Z,0
2017-08-18T03:22:10.615Z,0
2017-08-18T03:23:12.266Z,0
2017-08-18T03:24:14.008Z,0
2017-08-18T03:25:15.670Z,0
2017-08-18T03:26:17.503Z,0
2017-08-18T03:27:19.151Z,0
2017-08-18T03:28:21.004Z,0
2017-08-18T03:29:22.657Z,0
2017-08-18T03:30:24.512Z,0
2017-08-18T03:31:26.166Z,0
2017-08-18T03:32:27.989Z,0
2017-08-18T03:33:29.649Z,0
2017-08-18T03:34:31.484Z,0
2017-08-18T03:35:33.142Z,0
2017-08-18T03:36:34.981Z,0
2017-08-18T03:37:36.665Z,0
2017-08-18T03:38:38.369Z,0
2017-08-18T03:39:40.028Z,0
2017-08-18T03:40:41.863Z,0
2017-08-18T03:41:43.519Z,0
2017-08-18T03:42:45.359Z,0
2017-08-18T03:43:47.042Z,0
2017-08-18T03:44:48.856Z,0
2017-08-18T03:45:50.514Z,0
2017-08-18T03:46:52.350Z,0
2017-08-18T03:47:54.033Z,0
2017-08-18T03:48:55.886Z,0
2017-08-18T03:49:57.548Z,0
2017-08-18T03:50:59.351Z,0
2017-08-18T03:52:01.076Z,0
2017-08-18T03:53:02.855Z,0
2017-08-18T03:54:04.506Z,4
2017-08-18T03:55:06.338Z,4
2017-08-18T03:56:08.001Z,4
2017-08-18T03:57:09.849Z,0
2017-08-18T03:58:11.507Z,4
2017-08-18T03:59:13.345Z,4
2017-08-18T04:00:15.009Z,4
2017-08-18T04:01:16.833Z,8
2017-08-18T04:02:18.504Z,8
2017-08-18T04:03:20.320Z,8
2017-08-18T04:04:21.980Z,4
2017-08-18T04:05:23.822Z,4
2017-08-18T04:06:25.473Z,4
2017-08-18T04:07:27.317Z,8
2017-08-18T04:08:29.013Z,8
2017-08-18T04:09:30.803Z,8
2017-08-18T04:10:32.455Z,8
2017-08-18T04:11:34.421Z,8
2017-08-18T04:12:36.070Z,8
2017-08-18T04:13:37.905Z,8
2017-08-18T04:14:39.554Z,8
2017-08-18T04:15:41.444Z,12
2017-08-18T04:16:43.190Z,16
2017-08-18T04:17:44.998Z,16
2017-08-18T04:18:46.674Z,16
2017-08-18T04:19:48.476Z,20
2017-08-18T04:20:50.151Z,20
2017-08-18T04:21:52.035Z,20
2017-08-18T04:22:53.738Z,28
2017-08-18T04:23:55.606Z,28
2017-08-18T04:24:57.268Z,32
2017-08-18T04:25:59.119Z,32
2017-08-18T04:27:00.807Z,36
2017-08-18T04:28:02.586Z,40
2017-08-18T04:29:04.237Z,44
2017-08-18T04:30:06.060Z,52
2017-08-18T04:31:07.755Z,52
2017-08-18T04:32:09.582Z,60
2017-08-18T04:33:11.232Z,68
2017-08-18T04:34:13.106Z,76
2017-08-18T04:35:14.825Z,84
2017-08-18T04:36:16.680Z,92
2017-08-18T04:37:18.349Z,96
2017-08-18T04:38:20.151Z,100
2017-08-18T04:39:21.805Z,108
2017-08-18T04:40:23.633Z,120
2017-08-18T04:41:25.375Z,128
2017-08-18T04:42:27.271Z,136
2017-08-18T04:43:28.925Z,136
2017-08-18T04:44:30.755Z,132
2017-08-18T04:45:32.418Z,132
2017-08-18T04:46:34.249Z,132
2017-08-18T04:47:35.899Z,144
2017-08-18T04:48:37.739Z,148
2017-08-18T04:49:39.420Z,164
2017-08-18T04:50:41.253Z,172
2017-08-18T04:51:42.905Z,180
2017-08-18T04:52:44.775Z,180
2017-08-18T04:53:46.453Z,176
2017-08-18T04:54:48.388Z,176
2017-08-18T04:55:50.138Z,172
2017-08-18T04:56:51.982Z,164
2017-08-18T04:57:53.647Z,164
2017-08-18T04:58:55.524Z,156
2017-08-18T04:59:57.251Z,152
2017-08-18T05:00:59.020Z,148
2017-08-18T05:02:00.680Z,148
2017-08-18T05:03:02.396Z,152
2017-08-18T05:04:04.054Z,156
2017-08-18T05:05:05.786Z,152
2017-08-18T05:06:07.464Z,144
2017-08-18T05:07:09.213Z,144
2017-08-18T05:08:10.879Z,148
2017-08-18T05:09:12.578Z,152
2017-08-18T05:10:14.244Z,156
2017-08-18T05:11:15.970Z,156
2017-08-18T05:12:17.680Z,156
2017-08-18T05:13:19.382Z,160
2017-08-18T05:14:21.089Z,164
2017-08-18T05:15:22.748Z,168
2017-08-18T05:16:24.419Z,168
2017-08-18T05:17:26.143Z,164
2017-08-18T05:18:27.809Z,160
2017-08-18T05:19:29.541Z,172
2017-08-18T05:20:31.216Z,180
2017-08-18T05:21:32.924Z,192
2017-08-18T05:22:34.594Z,196
2017-08-18T05:23:36.339Z,204
2017-08-18T05:24:37.988Z,212
2017-08-18T05:25:39.731Z,220
2017-08-18T05:26:41.380Z,216
2017-08-18T05:27:43.137Z,244
2017-08-18T05:28:44.830Z,260
2017-08-18T05:29:46.598Z,296
2017-08-18T05:30:48.261Z,328
2017-08-18T05:31:50.030Z,364
2017-08-18T05:32:51.679Z,404
2017-08-18T05:33:53.400Z,440
2017-08-18T05:34:55.104Z,472
2017-08-18T05:35:56.919Z,500
2017-08-18T05:36:58.575Z,500
2017-08-18T05:38:00.289Z,492
2017-08-18T05:39:01.936Z,488
2017-08-18T05:40:03.677Z,500
2017-08-18T05:41:05.350Z,520
2017-08-18T05:42:07.069Z,512
2017-08-18T05:43:08.714Z,484
2017-08-18T05:44:10.462Z,464
2017-08-18T05:45:12.114Z,412
2017-08-18T05:46:13.863Z,380
2017-08-18T05:47:15.526Z,352
2017-08-18T05:48:17.243Z,320
2017-08-18T05:49:18.909Z,300
2017-08-18T05:50:20.635Z,304
2017-08-18T05:51:22.283Z,320
2017-08-18T05:52:24.028Z,344
2017-08-18T05:53:25.698Z,392
2017-08-18T05:54:27.420Z,424
2017-08-18T05:55:29.188Z,420
2017-08-18T05:56:30.892Z,400
2017-08-18T05:57:32.547Z,372
2017-08-18T05:58:34.207Z,344
2017-08-18T05:59:35.875Z,328
2017-08-18T06:00:37.537Z,316
2017-08-18T06:01:39.194Z,304
2017-08-18T06:02:40.853Z,304
2017-08-18T06:03:42.539Z,320
2017-08-18T06:04:44.192Z,324
2017-08-18T06:05:45.850Z,328
2017-08-18T06:06:47.584Z,332
2017-08-18T06:07:49.325Z,316
2017-08-18T06:08:50.989Z,300
2017-08-18T06:09:52.741Z,308
2017-08-18T06:10:54.401Z,312
2017-08-18T06:11:56.160Z,320
2017-08-18T06:12:57.840Z,316
2017-08-18T06:13:59.603Z,316
2017-08-18T06:15:01.293Z,312
2017-08-18T06:16:02.955Z,312
2017-08-18T06:17:04.601Z,324
2017-08-18T06:18:06.250Z,332
2017-08-18T06:19:07.902Z,332
2017-08-18T06:20:09.580Z,332
2017-08-18T06:21:11.237Z,332
2017-08-18T06:22:12.932Z,336
2017-08-18T06:23:14.626Z,344
2017-08-18T06:24:16.282Z,360
2017-08-18T06:25:17.967Z,384
2017-08-18T06:26:19.640Z,424
2017-08-18T06:27:21.302Z,448
2017-08-18T06:28:22.991Z,448
2017-08-18T06:29:24.644Z,460
2017-08-18T06:30:26.300Z,464
2017-08-18T06:31:27.964Z,476
2017-08-18T06:32:29.639Z,488
2017-08-18T06:33:31.332Z,516
2017-08-18T06:34:32.997Z,544
2017-08-18T06:35:34.781Z,564
2017-08-18T06:36:36.449Z,584
2017-08-18T06:37:38.104Z,600
2017-08-18T06:38:39.800Z,604
2017-08-18T06:39:41.478Z,616
2017-08-18T06:40:43.169Z,600
2017-08-18T06:41:44.928Z,568
2017-08-18T06:42:46.597Z,560
2017-08-18T06:43:48.310Z,560
2017-08-18T06:44:49.976Z,564
2017-08-18T06:49:42.701Z,262140
2017-08-18T06:50:44.303Z,262140
2017-08-18T06:52:36.374Z,262140
2017-08-18T06:53:37.975Z,262140
2017-08-18T06:54:39.580Z,262140
2017-08-18T06:55:41.179Z,262140
2017-08-18T06:56:42.781Z,262140
2017-08-18T06:57:44.383Z,262140
2017-08-18T06:58:45.984Z,262140
2017-08-18T06:59:47.593Z,262140
2017-08-18T07:00:49.199Z,262140
2017-08-18T07:01:50.799Z,262140
2017-08-18T07:02:52.404Z,262140
2017-08-18T07:03:54.010Z,262140
2017-08-18T07:04:55.613Z,262140
2017-08-18T07:05:57.225Z,262140
2017-08-18T07:06:58.821Z,262140
2017-08-18T07:08:00.425Z,262140
2017-08-18T07:09:02.024Z,262140
2017-08-18T07:10:03.632Z,262140
2017-08-18T07:12:17.744Z,262140
2017-08-18T07:13:19.365Z,262140
2017-08-18T07:15:12.388Z,262140
2017-08-18T09:37:32.872Z,3996.00
2017-08-18T09:38:33.970Z,4044.00
2017-08-18T09:40:26.339Z,3948.00
2017-08-18T09:41:26.215Z,3932.00
2017-08-18T09:43:19.581Z,3692.00
2017-08-18T09:44:19.684Z,3640.00
2017-08-18T09:45:19.600Z,3532.00
2017-08-18T09:46:19.684Z,3460.00
2017-08-18T09:47:19.636Z,3392.00
2017-08-18T09:48:19.705Z,3424.00
2017-08-18T09:49:19.701Z,3488.00
2017-08-18T09:50:19.722Z,3628.00
2017-08-18T09:51:19.670Z,3704.00
2017-08-18T09:52:19.681Z,3704.00
2017-08-18T09:53:19.810Z,3704.00
2017-08-18T09:54:19.710Z,3868.00
2017-08-18T09:55:19.756Z,3808.00
2017-08-18T09:56:19.742Z,3736.00
2017-08-18T09:57:19.748Z,3680.00
2017-08-18T09:58:19.872Z,3624.00
2017-08-18T09:59:19.787Z,3588.00
2017-08-18T10:00:19.887Z,3500.00
2017-08-18T10:01:19.810Z,3492.00
2017-08-18T10:02:19.900Z,3412.00
2017-08-18T10:03:19.830Z,3368.00
2017-08-18T10:04:19.916Z,3368.00
2017-08-18T10:05:20.039Z,3400.00
2017-08-18T10:06:19.931Z,3380.00
2017-08-18T10:07:19.883Z,3348.00
2017-08-18T10:08:19.940Z,3392.00
2017-08-18T10:09:19.912Z,3504.00
2017-08-18T10:10:19.957Z,3540.00
2017-08-18T10:11:19.948Z,3432.00
2017-08-18T10:12:19.966Z,3280.00
2017-08-18T10:13:19.963Z,3160.00
2017-08-18T10:14:20.085Z,3080.00
2017-08-18T10:15:19.994Z,3032.00
2017-08-18T10:16:20.099Z,2992.00
2017-08-18T10:17:20.031Z,2912.00
2017-08-18T10:18:20.114Z,2768.00
2017-08-18T10:19:20.046Z,2896.00
2017-08-18T10:20:20.124Z,3144.00
2017-08-18T10:21:20.071Z,2884.00
2017-08-18T10:22:20.138Z,2884.00
2017-08-18T10:23:20.110Z,2904.00
2017-08-18T10:24:20.149Z,3012.00
2017-08-18T10:25:20.133Z,2988.00
2017-08-18T10:26:20.164Z,3460.00
2017-08-18T10:27:20.157Z,3644.00
2017-08-18T10:28:20.280Z,3616.00
2017-08-18T10:29:20.188Z,3552.00
2017-08-18T10:30:20.294Z,3476.00
2017-08-18T10:31:20.209Z,3356.00
2017-08-18T10:32:20.308Z,3272.00
2017-08-18T10:33:20.236Z,3124.00
2017-08-18T10:34:20.322Z,2608.00
2017-08-18T10:35:20.266Z,2720.00
2017-08-18T10:36:20.338Z,2744.00
2017-08-18T10:37:20.292Z,2460.00
2017-08-18T10:38:20.349Z,2124.00
2017-08-18T10:39:20.320Z,1768.00
2017-08-18T10:40:20.363Z,1556.00
2017-08-18T10:41:20.349Z,1404.00
2017-08-18T10:42:20.373Z,1296.00
2017-08-18T10:43:20.464Z,1220.00
2017-08-18T10:44:20.491Z,1256.00
2017-08-18T10:45:20.401Z,1272.00
2017-08-18T10:46:20.504Z,1284.00
2017-08-18T10:47:20.447Z,1352.00
2017-08-18T10:48:20.519Z,1372.00
2017-08-18T10:49:20.451Z,1304.00
2017-08-18T10:50:20.469Z,1236.00
2017-08-18T10:51:20.487Z,1184.00
2017-08-18T10:52:20.546Z,1116.00
2017-08-18T10:53:20.505Z,1064.00
2017-08-18T10:54:20.563Z,1072.00
2017-08-18T10:55:20.538Z,1120.00
2017-08-18T10:56:20.576Z,1204.00
2017-08-18T10:57:20.579Z,1252.00
2017-08-18T10:58:20.690Z,1268.00
2017-08-18T10:59:20.597Z,1284.00
2017-08-18T11:00:20.720Z,1304.00
2017-08-18T11:01:20.623Z,1316.00
2017-08-18T11:02:20.718Z,1312.00
2017-08-18T11:03:20.808Z,1344.00
2017-08-18T11:04:20.670Z,1308.00
2017-08-18T11:05:20.740Z,1264.00
2017-08-18T11:06:20.685Z,1272.00
2017-08-18T11:07:20.750Z,1344.00
2017-08-18T11:08:20.721Z,1468.00
2017-08-18T11:09:20.765Z,1652.00
2017-08-18T11:10:20.745Z,1824.00
2017-08-18T11:11:20.878Z,2080.00
2017-08-18T11:12:20.774Z,2248.00
2017-08-18T11:13:20.897Z,2216.00
2017-08-18T11:14:20.797Z,2060.00
2017-08-18T11:15:20.918Z,1996.00
2017-08-18T11:16:20.826Z,2140.00
2017-08-18T11:17:20.937Z,2124.00
2017-08-18T11:18:20.850Z,2028.00
2017-08-18T11:19:20.958Z,1976.00
2017-08-18T11:20:20.966Z,1972.00
2017-08-18T11:21:20.898Z,2020.00
2017-08-18T11:22:20.966Z,1984.00
2017-08-18T11:23:20.925Z,1932.00
2017-08-18T11:24:20.989Z,1860.00
2017-08-18T11:25:20.954Z,1844.00
2017-08-18T11:26:20.995Z,1792.00
2017-08-18T11:27:20.986Z,1820.00
2017-08-18T11:28:20.989Z,2012.00
2017-08-18T11:29:21.099Z,2176.00
2017-08-18T11:30:21.028Z,2240.00
2017-08-18T11:31:21.107Z,2176.00
2017-08-18T11:32:21.044Z,2124.00
2017-08-18T11:33:21.059Z,2204.00
2017-08-18T11:34:21.070Z,2268.00
2017-08-18T11:35:21.094Z,2220.00
2017-08-18T11:36:21.108Z,2236.00
2017-08-18T11:37:21.119Z,2268.00
2017-08-18T11:38:21.132Z,2236.00
2017-08-18T11:39:21.153Z,2152.00
2017-08-18T11:40:21.159Z,2088.00
2017-08-18T11:41:21.269Z,2088.00
2017-08-18T11:42:21.269Z,2076.00
2017-08-18T11:43:21.208Z,2140.00
2017-08-18T11:44:21.211Z,2216.00
2017-08-18T11:45:21.247Z,2204.00
2017-08-18T11:46:21.241Z,2156.00
2017-08-18T11:47:21.311Z,2080.00
2017-08-18T11:48:21.270Z,2036.00
2017-08-18T11:49:21.276Z,2028.00
2017-08-18T11:50:21.294Z,2004.00
2017-08-18T11:51:21.340Z,2060.00
2017-08-18T11:52:21.324Z,2220.00
2017-08-18T11:53:21.351Z,2216.00
2017-08-18T11:54:21.355Z,2092.00
2017-08-18T11:55:21.468Z,1964.00
2017-08-18T11:56:21.374Z,1944.00
2017-08-18T11:57:21.483Z,1944.00
2017-08-18T11:58:21.415Z,1976.00
2017-08-18T11:59:21.497Z,2032.00
2017-08-18T12:00:21.428Z,2092.00
2017-08-18T12:01:21.507Z,2104.00
2017-08-18T12:02:21.454Z,2044.00
2017-08-18T12:03:21.534Z,2000.00
2017-08-18T12:04:21.486Z,1952.00
2017-08-18T12:05:21.617Z,1932.00
2017-08-18T12:06:21.516Z,1964.00
2017-08-18T12:07:21.527Z,1992.00
2017-08-18T12:08:21.545Z,2048.00
2017-08-18T12:09:21.639Z,2008.00
2017-08-18T12:10:21.572Z,1948.00
2017-08-18T12:11:21.587Z,1944.00
2017-08-18T12:12:21.596Z,2004.00
2017-08-18T12:13:21.607Z,2092.00
2017-08-18T12:14:21.632Z,2152.00
2017-08-18T12:15:21.631Z,2324.00
2017-08-18T12:16:21.662Z,2692.00
2017-08-18T12:17:21.667Z,2976.00
2017-08-18T12:18:21.677Z,3068.00
2017-08-18T12:19:21.692Z,3012.00
2017-08-18T12:20:21.820Z,2896.00
2017-08-18T12:21:21.725Z,2756.00
2017-08-18T12:22:21.834Z,2596.00
2017-08-18T12:23:21.755Z,2452.00
2017-08-18T12:24:21.844Z,2284.00
2017-08-18T12:25:21.778Z,2100.00
2017-08-18T12:26:21.855Z,1988.00
2017-08-18T12:27:21.799Z,1928.00
2017-08-18T12:28:21.872Z,1920.00
2017-08-18T12:29:21.831Z,1884.00
2017-08-18T12:30:21.886Z,1768.00
2017-08-18T12:31:21.859Z,1676.00
2017-08-18T12:32:21.870Z,1752.00
2017-08-18T12:33:21.963Z,1792.00
2017-08-18T12:34:21.899Z,1724.00
2017-08-18T12:35:21.923Z,1768.00
2017-08-18T12:36:21.937Z,1728.00
2017-08-18T12:37:22.035Z,1692.00
2017-08-18T12:38:21.966Z,1672.00
2017-08-18T12:39:22.056Z,1576.00
2017-08-18T12:40:21.978Z,1484.00
2017-08-18T12:41:22.066Z,1472.00
2017-08-18T12:42:22.011Z,1520.00
2017-08-18T12:43:22.079Z,1636.00
2017-08-18T12:44:22.035Z,1856.00
2017-08-18T12:45:22.092Z,2092.00
2017-08-18T12:46:22.066Z,2336.00
2017-08-18T12:47:22.079Z,2616.00
2017-08-18T12:48:22.088Z,2956.00
2017-08-18T12:49:22.222Z,3156.00
2017-08-18T12:50:22.122Z,3196.00
2017-08-18T12:51:22.234Z,3240.00
2017-08-18T12:52:22.146Z,3144.00
2017-08-18T12:53:22.247Z,2888.00
2017-08-18T12:54:22.174Z,2764.00
2017-08-18T12:55:22.182Z,2672.00
2017-08-18T12:56:22.312Z,2536.00
2017-08-18T12:57:22.212Z,2500.00
2017-08-18T12:58:23.311Z,2516.00
2017-08-18T12:59:22.245Z,2512.00
2017-08-18T13:00:22.259Z,2668.00
2017-08-18T13:01:22.265Z,3036.00
2017-08-18T13:02:22.361Z,3428.00
2017-08-18T13:03:22.300Z,3688.00
2017-08-18T13:04:22.318Z,3856.00
2017-08-18T13:05:22.324Z,3784.00
2017-08-18T13:06:22.345Z,3512.00
2017-08-18T13:07:22.356Z,3320.00
2017-08-18T13:08:22.374Z,3340.00
2017-08-18T13:09:22.378Z,3404.00
2017-08-18T13:10:22.405Z,3472.00
2017-08-18T13:11:22.411Z,3556.00
2017-08-18T13:12:22.442Z,3660.00
2017-08-18T13:13:22.437Z,3688.00
2017-08-18T13:14:22.457Z,3676.00
2017-08-18T13:15:22.465Z,3692.00
2017-08-18T13:16:22.478Z,3648.00
2017-08-18T13:17:22.488Z,3596.00
2017-08-18T13:18:22.507Z,3576.00
2017-08-18T13:19:22.523Z,3568.00
2017-08-18T13:20:22.535Z,3556.00
2017-08-18T13:21:22.545Z,3520.00
2017-08-18T13:22:22.564Z,3516.00
2017-08-18T13:23:22.575Z,3524.00
2017-08-18T13:24:22.593Z,3564.00
2017-08-18T13:25:22.605Z,3548.00
2017-08-18T13:26:23.613Z,3516.00
2017-08-18T13:27:22.629Z,3472.00
2017-08-18T13:28:22.651Z,3428.00
2017-08-18T13:29:22.659Z,3452.00
2017-08-18T13:30:22.673Z,3520.00
2017-08-18T13:31:22.684Z,3560.00
2017-08-18T13:32:23.702Z,3500.00
2017-08-18T13:33:22.714Z,3344.00
2017-08-18T13:34:22.726Z,3204.00
2017-08-18T13:35:22.746Z,3104.00
2017-08-18T13:36:22.755Z,3040.00
2017-08-18T13:37:22.767Z,3012.00
2017-08-18T13:38:22.782Z,3028.00
2017-08-18T13:39:22.794Z,3024.00
2017-08-18T13:40:22.817Z,3004.00
2017-08-18T13:41:22.815Z,2984.00
2017-08-18T13:42:22.847Z,3000.00
2017-08-18T13:43:22.849Z,3052.00
2017-08-18T13:44:22.863Z,3100.00
2017-08-18T13:45:22.882Z,3056.00
2017-08-18T13:46:22.894Z,2892.00
2017-08-18T13:47:22.905Z,2780.00
2017-08-18T13:48:22.923Z,2700.00
2017-08-18T13:49:22.938Z,2644.00
2017-08-18T13:50:22.947Z,2616.00
2017-08-18T13:51:22.955Z,2540.00
2017-08-18T13:52:22.980Z,2360.00
2017-08-18T13:53:22.987Z,2232.00
2017-08-18T13:54:23.004Z,2072.00
2017-08-18T13:55:23.017Z,1888.00
2017-08-18T13:56:23.030Z,1696.00
2017-08-18T13:57:23.048Z,1644.00
2017-08-18T13:58:23.062Z,1728.00
2017-08-18T13:59:23.080Z,1840.00
2017-08-18T14:00:23.091Z,1952.00
2017-08-18T14:01:23.098Z,2020.00
2017-08-18T14:02:23.117Z,1964.00
2017-08-18T14:03:23.121Z,1840.00
2017-08-18T14:04:23.149Z,1752.00
2017-08-18T14:05:23.155Z,1652.00
2017-08-18T14:06:23.168Z,1572.00
2017-08-18T14:07:23.183Z,1556.00
2017-08-18T14:08:23.193Z,1480.00
2017-08-18T14:09:23.204Z,1432.00
2017-08-18T14:10:23.225Z,1400.00
2017-08-18T14:11:23.240Z,1368.00
2017-08-18T14:12:23.253Z,1320.00
2017-08-18T14:13:23.272Z,1208.00
2017-08-18T14:14:23.279Z,1136.00
2017-08-18T14:15:23.293Z,1088.00
2017-08-18T14:16:23.308Z,996.00
2017-08-18T14:17:23.321Z,916.00
2017-08-18T14:18:23.333Z,908.00
2017-08-18T14:19:23.344Z,908.00
2017-08-18T14:20:23.370Z,980.00
2017-08-18T14:21:23.373Z,1012.00
2017-08-18T14:22:23.392Z,1072.00
2017-08-18T14:23:23.400Z,1180.00
2017-08-18T14:24:23.416Z,1196.00
2017-08-18T14:25:23.431Z,1152.00
2017-08-18T14:26:23.447Z,1020.00
2017-08-18T14:27:23.468Z,936.00
2017-08-18T14:28:23.471Z,844.00
2017-08-18T14:29:23.494Z,772.00
2017-08-18T14:30:23.526Z,800.00
2017-08-18T14:31:23.515Z,812.00
2017-08-18T14:32:23.531Z,752.00
2017-08-18T14:33:23.541Z,684.00
2017-08-18T14:34:23.561Z,660.00
2017-08-18T14:35:23.573Z,688.00
2017-08-18T14:36:23.593Z,756.00
2017-08-18T14:37:23.595Z,728.00
2017-08-18T14:38:23.610Z,728.00
2017-08-18T14:39:23.625Z,792.00
2017-08-18T14:40:23.636Z,848.00
2017-08-18T14:41:23.651Z,876.00
2017-08-18T14:42:23.668Z,944.00
2017-08-18T14:43:23.679Z,1032.00
2017-08-18T14:44:23.695Z,1088.00
2017-08-18T14:45:23.708Z,1120.00
2017-08-18T14:46:23.726Z,1136.00
2017-08-18T14:47:23.735Z,1124.00
2017-08-18T14:48:23.751Z,1100.00
2017-08-18T14:49:23.758Z,1064.00
2017-08-18T14:50:23.777Z,1052.00
2017-08-18T14:51:23.789Z,1056.00
2017-08-18T14:52:23.809Z,1060.00
2017-08-18T14:53:23.817Z,1056.00
2017-08-18T14:54:23.838Z,1052.00
2017-08-18T14:55:23.845Z,1040.00
2017-08-18T14:56:23.864Z,1028.00
2017-08-18T14:57:23.871Z,1020.00
2017-08-18T14:58:23.977Z,1016.00
2017-08-18T14:59:23.904Z,1008.00
2017-08-18T15:00:23.917Z,976.00
2017-08-18T15:01:23.926Z,932.00
2017-08-18T15:02:23.947Z,900.00
2017-08-18T15:03:23.954Z,876.00
2017-08-18T15:04:23.973Z,844.00
2017-08-18T15:05:23.995Z,828.00
2017-08-18T15:06:24.001Z,820.00
2017-08-18T15:07:24.009Z,820.00
2017-08-18T15:08:24.026Z,816.00
2017-08-18T15:09:24.033Z,796.00
2017-08-18T15:10:24.044Z,776.00
2017-08-18T15:11:24.060Z,772.00
2017-08-18T15:12:24.151Z,772.00
2017-08-18T15:13:24.099Z,784.00
2017-08-18T15:14:24.166Z,788.00
2017-08-18T15:15:24.122Z,788.00
2017-08-18T15:16:24.180Z,780.00
2017-08-18T15:17:24.182Z,768.00
2017-08-18T15:18:24.195Z,764.00
2017-08-18T15:19:24.181Z,756.00
2017-08-18T15:20:25.232Z,764.00
2017-08-18T15:21:24.205Z,784.00
2017-08-18T15:22:24.318Z,812.00
2017-08-18T15:23:24.229Z,848.00
2017-08-18T15:24:24.339Z,884.00
2017-08-18T15:25:24.265Z,908.00
2017-08-18T15:26:24.359Z,920.00
2017-08-18T15:27:24.297Z,856.00
2017-08-18T15:28:24.297Z,716.00
2017-08-18T15:29:24.369Z,600.00
2017-08-18T15:30:24.331Z,424.00
2017-08-18T15:31:24.381Z,284.00
2017-08-18T15:32:24.351Z,164.00
2017-08-18T15:33:24.395Z,92.00
2017-08-18T15:34:24.381Z,96.00
2017-08-18T15:35:24.409Z,100.00
2017-08-18T15:36:24.419Z,100.00
2017-08-18T15:37:24.530Z,92.00
2017-08-18T15:38:24.436Z,112.00
2017-08-18T15:39:24.538Z,156.00
2017-08-18T15:40:24.460Z,188.00
2017-08-18T15:41:24.554Z,212.00
2017-08-18T15:42:24.489Z,224.00
2017-08-18T15:43:24.516Z,228.00
2017-08-18T15:44:24.521Z,240.00
2017-08-18T15:45:24.588Z,260.00
2017-08-18T15:46:24.548Z,308.00
2017-08-18T15:47:24.601Z,236.00
2017-08-18T15:48:24.581Z,184.00
2017-08-18T15:49:24.609Z,152.00
2017-08-18T15:50:24.601Z,132.00
2017-08-18T15:51:24.723Z,116.00
2017-08-18T15:52:24.632Z,116.00
2017-08-18T15:53:24.738Z,132.00
2017-08-18T15:54:24.659Z,144.00